createdAt,value
2022-12-03T00:00:00.762Z,70.95
2022-12-03T00:02:28.710Z,67.35
2022-12-03T00:04:56.230Z,70.30
2022-12-03T00:07:23.806Z,69.43
2022-12-03T00:09:50.952Z,72.63
2022-12-03T00:12:18.407Z,66.88
2022-12-03T00:14:45.578Z,64.13
2022-12-03T00:17:13.022Z,60.58
2022-12-03T00:19:40.172Z,61.35
2022-12-03T00:22:07.590Z,63.58
2022-12-03T00:24:34.831Z,75.00
2022-12-03T00:27:02.634Z,68.90
2022-12-03T00:29:29.800Z,68.38
2022-12-03T00:31:57.259Z,59.72
2022-12-03T00:34:24.444Z,58.53
2022-12-03T00:36:51.904Z,62.35
2022-12-03T00:39:19.093Z,69.97
2022-12-03T00:41:46.551Z,66.90
2022-12-03T00:44:13.980Z,68.47
2022-12-03T00:46:41.718Z,60.30
2022-12-03T00:49:09.081Z,71.43
2022-12-03T00:51:36.575Z,65.88
2022-12-03T00:54:03.908Z,63.80
2022-12-03T00:56:31.392Z,71.63
2022-12-03T00:58:58.582Z,69.18
2022-12-03T01:01:26.108Z,66.18
2022-12-03T01:03:53.228Z,73.63
2022-12-03T01:06:21.338Z,72.97
2022-12-03T01:08:48.550Z,71.57
2022-12-03T01:11:34.408Z,75.57
2022-12-03T01:14:01.564Z,68.88
2022-12-03T01:16:29.044Z,67.68
2022-12-03T01:18:56.306Z,73.95
2022-12-03T01:21:23.843Z,69.90
2022-12-03T01:23:51.036Z,76.68
2022-12-03T01:26:18.536Z,72.38
2022-12-03T01:28:45.704Z,71.75
2022-12-03T01:31:31.841Z,77.60
2022-12-03T01:34:00.745Z,69.72
2022-12-03T01:36:28.202Z,77.97
2022-12-03T01:38:55.446Z,74.55
2022-12-03T01:41:24.832Z,75.35
2022-12-03T01:43:54.027Z,73.43
2022-12-03T01:46:25.811Z,67.25
2022-12-03T01:48:54.918Z,72.97
2022-12-03T01:51:22.728Z,77.53
2022-12-03T01:53:51.502Z,72.13
2022-12-03T01:56:19.437Z,77.82
2022-12-03T01:58:47.635Z,75.13
2022-12-03T02:01:19.082Z,78.53
2022-12-03T02:03:46.606Z,68.47
2022-12-03T02:06:20.431Z,73.75
2022-12-03T02:08:48.625Z,80.05
2022-12-03T02:11:31.868Z,89.63
2022-12-03T02:14:06.571Z,81.10
2022-12-03T02:16:36.543Z,74.35
2022-12-03T02:19:08.674Z,74.07
2022-12-03T02:21:40.291Z,69.82
2022-12-03T02:24:36.783Z,74.20
2022-12-03T02:27:04.481Z,67.68
2022-12-03T02:29:31.649Z,64.78
2022-12-03T02:31:59.241Z,77.80
2022-12-03T02:34:43.981Z,70.20
2022-12-03T02:37:17.721Z,74.50
2022-12-03T02:39:50.440Z,78.45
2022-12-03T02:42:37.781Z,79.10
2022-12-03T02:45:28.119Z,82.10
2022-12-03T02:48:06.068Z,78.78
2022-12-03T02:50:37.274Z,71.97
2022-12-03T02:53:09.280Z,77.25
2022-12-03T02:55:37.693Z,75.60
2022-12-03T02:58:05.995Z,79.10
2022-12-03T03:00:35.546Z,74.68
2022-12-03T03:03:04.605Z,75.10
2022-12-03T03:05:33.457Z,72.80
2022-12-03T03:08:01.761Z,72.18
2022-12-03T03:10:30.718Z,73.40
2022-12-03T03:12:58.465Z,78.90
2022-12-03T03:15:25.679Z,73.22
2022-12-03T03:17:53.315Z,69.00
2022-12-03T03:20:20.791Z,71.53
2022-12-03T03:22:48.265Z,72.85
2022-12-03T03:25:18.734Z,79.18
2022-12-03T03:27:46.255Z,76.57
2022-12-03T03:30:14.346Z,75.90
2022-12-03T03:32:42.907Z,76.00
2022-12-03T03:35:11.929Z,78.10
2022-12-03T03:37:39.565Z,64.47
2022-12-03T03:40:07.899Z,70.63
2022-12-03T03:42:36.088Z,77.50
2022-12-03T03:45:03.513Z,79.90
2022-12-03T03:47:31.041Z,92.50
2022-12-03T03:49:58.647Z,77.03
2022-12-03T03:52:26.408Z,78.85
2022-12-03T03:54:53.821Z,73.78
2022-12-03T03:57:21.573Z,73.40
2022-12-03T03:59:48.900Z,70.15
2022-12-03T04:02:21.153Z,73.75
2022-12-03T04:04:49.452Z,65.75
2022-12-03T04:07:17.139Z,70.88
2022-12-03T04:09:44.641Z,80.38
2022-12-03T04:12:31.615Z,74.13
2022-12-03T04:14:59.392Z,72.00
2022-12-03T04:17:27.257Z,77.18
2022-12-03T04:19:54.449Z,71.03
2022-12-03T04:22:39.956Z,70.47
2022-12-03T04:25:28.528Z,81.68
2022-12-03T04:28:14.552Z,75.95
2022-12-03T04:30:41.804Z,86.70
2022-12-03T04:33:27.943Z,78.38
2022-12-03T04:35:55.238Z,76.95
2022-12-03T04:38:22.889Z,76.85
2022-12-03T04:41:01.823Z,81.85
2022-12-03T04:43:33.597Z,80.03
2022-12-03T04:46:01.447Z,60.40
2022-12-03T04:48:30.477Z,80.13
2022-12-03T04:50:57.927Z,75.18
2022-12-03T04:53:25.429Z,80.28
2022-12-03T04:55:52.551Z,81.88
2022-12-03T04:58:20.085Z,87.05
2022-12-03T05:00:47.389Z,83.38
2022-12-03T05:03:15.026Z,83.25
2022-12-03T05:05:42.184Z,85.80
2022-12-03T05:08:09.664Z,84.93
2022-12-03T05:10:36.926Z,88.15
2022-12-03T05:13:04.414Z,90.65
2022-12-03T05:15:31.663Z,86.18
2022-12-03T05:17:59.106Z,75.07
2022-12-03T05:20:41.342Z,80.38
2022-12-03T05:23:10.609Z,76.90
2022-12-03T05:25:37.875Z,78.22
2022-12-03T05:28:06.326Z,78.65
2022-12-03T05:30:34.410Z,77.60
2022-12-03T05:33:02.036Z,74.13
2022-12-03T05:35:29.210Z,80.97
2022-12-03T05:37:56.720Z,80.05
2022-12-03T05:40:24.041Z,81.53
2022-12-03T05:42:54.322Z,79.32
2022-12-03T05:45:26.281Z,83.20
2022-12-03T05:47:55.380Z,83.70
2022-12-03T05:50:24.498Z,76.07
2022-12-03T05:52:52.429Z,76.38
2022-12-03T05:55:19.738Z,81.47
2022-12-03T05:57:47.455Z,83.65
2022-12-03T06:00:18.541Z,80.38
2022-12-03T06:02:46.322Z,83.85
2022-12-03T06:05:15.034Z,82.18
2022-12-03T06:07:43.073Z,76.22
2022-12-03T06:10:13.687Z,86.65
2022-12-03T06:12:41.593Z,81.40
2022-12-03T06:15:09.810Z,88.75
2022-12-03T06:17:37.363Z,81.88
2022-12-03T06:20:05.230Z,91.90
2022-12-03T06:22:32.729Z,72.82
2022-12-03T06:25:05.099Z,89.60
2022-12-03T06:27:34.317Z,80.22
2022-12-03T06:30:01.974Z,80.05
2022-12-03T06:32:29.452Z,76.47
2022-12-03T06:34:56.779Z,90.00
2022-12-03T06:37:24.310Z,95.82
2022-12-03T06:39:51.517Z,82.72
2022-12-03T06:42:18.955Z,91.43
2022-12-03T06:44:46.085Z,85.45
2022-12-03T06:47:13.517Z,83.95
2022-12-03T06:49:40.735Z,77.05
2022-12-03T06:52:08.172Z,80.57
2022-12-03T06:54:35.549Z,79.93
2022-12-03T06:57:03.043Z,84.28
2022-12-03T06:59:34.129Z,75.97
2022-12-03T07:02:01.750Z,74.05
2022-12-03T07:04:28.901Z,78.13
2022-12-03T07:06:56.366Z,81.95
2022-12-03T07:09:23.598Z,81.47
2022-12-03T07:11:51.044Z,82.05
2022-12-03T07:14:18.216Z,85.30
2022-12-03T07:16:45.955Z,89.53
2022-12-03T07:19:13.454Z,88.72
2022-12-03T07:21:41.013Z,90.85
2022-12-03T07:24:08.894Z,81.55
2022-12-03T07:26:36.470Z,72.63
2022-12-03T07:29:03.817Z,84.43
2022-12-03T07:31:31.445Z,82.05
2022-12-03T07:33:58.679Z,69.95
2022-12-03T07:36:26.483Z,80.40
2022-12-03T07:38:53.864Z,79.63
2022-12-03T07:41:21.659Z,82.07
2022-12-03T07:43:49.321Z,84.25
2022-12-03T07:46:17.529Z,77.55
2022-12-03T07:48:44.749Z,94.45
2022-12-03T07:51:15.168Z,81.28
2022-12-03T07:53:43.050Z,84.00
2022-12-03T07:56:11.133Z,82.40
2022-12-03T07:58:38.305Z,78.18
2022-12-03T08:01:06.057Z,91.85
2022-12-03T08:03:33.305Z,92.30
2022-12-03T08:06:00.997Z,84.18
2022-12-03T08:08:28.196Z,79.28
2022-12-03T08:10:55.666Z,81.13
2022-12-03T08:13:22.910Z,89.05
2022-12-03T08:15:52.313Z,83.60
2022-12-03T08:18:22.122Z,86.28
2022-12-03T08:20:51.570Z,85.07
2022-12-03T08:23:24.549Z,78.88
2022-12-03T08:25:53.145Z,88.72
2022-12-03T08:28:28.153Z,82.47
2022-12-03T08:31:33.147Z,90.72
2022-12-03T08:34:13.842Z,82.13
2022-12-03T08:36:41.390Z,90.15
2022-12-03T08:39:22.462Z,95.85
2022-12-03T08:42:16.565Z,78.85
2022-12-03T08:44:43.782Z,69.45
2022-12-03T08:47:22.729Z,81.57
2022-12-03T08:50:25.380Z,89.97
2022-12-03T08:52:54.908Z,80.88
2022-12-03T08:55:39.219Z,85.68
2022-12-03T08:58:21.922Z,83.75
2022-12-03T09:00:54.956Z,75.35
2022-12-03T09:03:22.522Z,72.13
2022-12-03T09:05:49.696Z,89.95
2022-12-03T09:08:17.322Z,85.32
2022-12-03T09:10:44.549Z,81.47
2022-12-03T09:13:12.001Z,79.00
2022-12-03T09:15:39.166Z,82.57
2022-12-03T09:18:06.733Z,81.55
2022-12-03T09:20:33.877Z,74.78
2022-12-03T09:23:01.365Z,73.50
2022-12-03T09:25:28.626Z,76.80
2022-12-03T09:27:56.153Z,73.00
2022-12-03T09:30:23.426Z,68.97
2022-12-03T09:32:50.965Z,73.25
2022-12-03T09:35:18.144Z,65.43
2022-12-03T09:37:45.601Z,69.63
2022-12-03T09:40:13.351Z,70.18
2022-12-03T09:42:41.363Z,79.15
2022-12-03T09:45:12.310Z,69.95
2022-12-03T09:47:43.807Z,53.67
2022-12-03T09:50:14.490Z,81.88
2022-12-03T09:52:42.056Z,63.25
2022-12-03T09:55:17.536Z,72.60
2022-12-03T09:57:45.059Z,75.28
2022-12-03T10:00:21.853Z,70.50
2022-12-03T10:02:51.414Z,79.13
2022-12-03T10:05:22.551Z,70.80
2022-12-03T10:07:51.735Z,79.18
2022-12-03T10:10:24.098Z,75.88
2022-12-03T10:12:52.569Z,78.85
2022-12-03T10:15:23.595Z,84.60
2022-12-03T10:17:53.325Z,87.63
2022-12-03T10:20:23.876Z,94.82
2022-12-03T10:22:51.403Z,88.30
2022-12-03T10:25:21.551Z,88.40
2022-12-03T10:27:58.848Z,78.82
2022-12-03T10:30:29.702Z,82.82
2022-12-03T10:32:59.236Z,71.70
2022-12-03T10:35:38.544Z,89.63
2022-12-03T10:38:18.076Z,84.88
2022-12-03T10:40:46.087Z,77.05
2022-12-03T10:43:19.522Z,74.70
2022-12-03T10:45:50.771Z,87.53
2022-12-03T10:48:21.245Z,93.88
2022-12-03T10:50:50.522Z,75.10
2022-12-03T10:53:19.468Z,88.15
2022-12-03T10:55:48.376Z,87.70
2022-12-03T10:58:42.375Z,82.15
2022-12-03T11:01:18.693Z,75.95
2022-12-03T11:03:47.124Z,91.03
2022-12-03T11:06:22.887Z,81.78
2022-12-03T11:08:57.561Z,80.47
2022-12-03T11:11:29.156Z,84.25
2022-12-03T11:13:59.178Z,81.60
2022-12-03T11:16:41.687Z,81.07
2022-12-03T11:19:20.036Z,86.90
2022-12-03T11:22:05.524Z,82.47
2022-12-03T11:24:35.542Z,84.63
2022-12-03T11:27:02.785Z,95.40
2022-12-03T11:29:48.636Z,92.28
2022-12-03T11:32:43.791Z,90.43
2022-12-03T11:35:38.141Z,99.75
2022-12-03T11:38:52.416Z,93.47
2022-12-03T11:41:22.871Z,77.70
2022-12-03T11:43:53.234Z,87.07
2022-12-03T11:46:46.573Z,81.05
2022-12-03T11:49:29.911Z,72.40
2022-12-03T11:52:00.447Z,73.80
2022-12-03T11:54:28.097Z,76.30
2022-12-03T11:56:56.421Z,78.60
2022-12-03T11:59:23.750Z,80.70
2022-12-03T12:01:51.393Z,76.63
2022-12-03T12:04:38.002Z,83.65
2022-12-03T12:07:05.521Z,74.85
2022-12-03T12:09:55.349Z,79.07
2022-12-03T12:12:51.046Z,71.18
2022-12-03T12:15:43.393Z,73.38
2022-12-03T12:18:41.631Z,71.28
2022-12-03T12:21:43.068Z,62.70
2022-12-03T12:24:40.335Z,63.40
2022-12-03T12:27:15.961Z,68.25
2022-12-03T12:29:47.262Z,68.63
2022-12-03T12:32:17.592Z,57.97
2022-12-03T12:34:48.801Z,74.07
2022-12-03T12:37:44.932Z,78.68
2022-12-03T12:40:16.466Z,75.57
2022-12-03T12:42:55.207Z,74.35
2022-12-03T12:45:34.559Z,78.03
2022-12-03T12:48:05.841Z,78.32
2022-12-03T12:50:33.763Z,75.00
2022-12-03T12:53:11.760Z,77.60
2022-12-03T12:55:39.518Z,78.00
2022-12-03T12:58:19.678Z,76.18
2022-12-03T13:00:51.360Z,72.22
2022-12-03T13:03:21.541Z,76.00
2022-12-03T13:05:51.167Z,74.78
2022-12-03T13:08:21.472Z,72.90
2022-12-03T13:10:51.864Z,93.72
2022-12-03T13:13:24.833Z,97.68
2022-12-03T13:16:34.206Z,90.60
2022-12-03T13:19:02.194Z,93.28
2022-12-03T13:21:40.998Z,101.90
2022-12-03T13:24:29.892Z,101.45
2022-12-03T13:26:59.131Z,108.07
2022-12-03T13:29:28.196Z,100.20
2022-12-03T13:31:58.725Z,91.57
2022-12-03T13:34:31.305Z,90.13
2022-12-03T13:37:00.670Z,84.82
2022-12-03T13:39:30.317Z,84.05
2022-12-03T13:42:29.358Z,83.07
2022-12-03T13:44:56.601Z,76.85
2022-12-03T13:47:24.265Z,83.78
2022-12-03T13:49:58.165Z,82.65
2022-12-03T13:52:26.053Z,79.10
2022-12-03T13:54:56.192Z,85.75
2022-12-03T13:57:23.751Z,86.90
2022-12-03T13:59:51.020Z,86.28
2022-12-03T14:02:18.713Z,94.13
2022-12-03T14:04:46.389Z,91.45
2022-12-03T14:07:13.825Z,91.03
2022-12-03T14:09:41.733Z,75.70
2022-12-03T14:12:27.303Z,91.43
2022-12-03T14:14:54.727Z,102.60
2022-12-03T14:17:22.257Z,97.32
2022-12-03T14:19:49.990Z,95.45
2022-12-03T14:22:19.355Z,102.50
2022-12-03T14:24:46.595Z,98.38
2022-12-03T14:27:14.097Z,94.95
2022-12-03T14:29:41.248Z,90.72
2022-12-03T14:32:08.788Z,93.38
2022-12-03T14:34:36.108Z,89.53
2022-12-03T14:37:03.615Z,88.75
2022-12-03T14:39:30.918Z,93.15
2022-12-03T14:42:13.469Z,97.53
2022-12-03T14:44:45.151Z,94.43
2022-12-03T14:49:40.789Z,85.95
2022-12-03T14:52:12.209Z,92.60
2022-12-03T14:54:42.682Z,78.78
2022-12-03T14:57:15.199Z,84.07
2022-12-03T15:02:11.691Z,85.75
2022-12-03T15:04:40.102Z,95.18
2022-12-03T15:07:08.487Z,87.03
2022-12-03T15:09:35.798Z,104.00
2022-12-03T15:12:04.318Z,87.35
2022-12-03T15:14:31.596Z,105.97
2022-12-03T15:16:59.144Z,102.05
2022-12-03T15:19:26.509Z,101.32
2022-12-03T15:21:54.001Z,98.40
2022-12-03T15:24:21.299Z,92.72
2022-12-03T15:26:49.693Z,93.38
2022-12-03T15:29:16.885Z,105.63
2022-12-03T15:31:44.690Z,99.50
2022-12-03T15:34:11.893Z,105.32
2022-12-03T15:36:39.409Z,114.25
2022-12-03T15:39:06.585Z,104.22
2022-12-03T15:41:34.088Z,108.53
2022-12-03T15:44:02.252Z,104.68
2022-12-03T15:46:31.523Z,109.43
2022-12-03T15:48:59.696Z,111.55
2022-12-03T15:51:27.697Z,107.43
2022-12-03T15:53:54.937Z,105.97
2022-12-03T15:56:22.399Z,102.75
2022-12-03T15:58:49.668Z,109.88
2022-12-03T16:01:18.464Z,91.22
2022-12-03T16:03:45.884Z,99.55
2022-12-03T16:06:14.804Z,104.60
2022-12-03T16:08:42.231Z,107.18
2022-12-03T16:11:09.829Z,110.00
2022-12-03T16:13:37.082Z,107.57
2022-12-03T16:16:04.858Z,108.30
2022-12-03T16:18:32.261Z,123.03
2022-12-03T16:20:59.726Z,101.15
2022-12-03T16:23:26.935Z,116.15
2022-12-03T16:25:54.586Z,113.60
2022-12-03T16:28:21.875Z,110.43
2022-12-03T16:30:49.416Z,121.13
2022-12-03T16:33:16.699Z,126.40
2022-12-03T16:35:44.687Z,118.60
2022-12-03T16:38:11.860Z,114.05
2022-12-03T16:40:39.393Z,108.70
2022-12-03T16:43:08.467Z,122.65
2022-12-03T16:46:01.879Z,117.40
2022-12-03T16:48:30.101Z,128.35
2022-12-03T16:50:57.608Z,115.72
2022-12-03T16:53:25.734Z,115.07
2022-12-03T16:55:53.359Z,112.20
2022-12-03T16:58:21.546Z,102.63
2022-12-03T17:00:50.229Z,120.57
2022-12-03T17:03:18.019Z,110.53
2022-12-03T17:05:46.576Z,98.82
2022-12-03T17:08:14.649Z,117.53
2022-12-03T17:10:42.956Z,114.25
2022-12-03T17:13:10.795Z,112.68
2022-12-03T17:15:39.734Z,117.07
2022-12-03T17:18:08.267Z,137.68
2022-12-03T17:20:35.996Z,112.03
2022-12-03T17:23:03.872Z,127.97
2022-12-03T17:25:31.464Z,103.53
2022-12-03T17:28:13.792Z,123.88
2022-12-03T17:30:41.394Z,124.63
2022-12-03T17:33:08.539Z,117.55
2022-12-03T17:35:36.827Z,120.97
2022-12-03T17:38:04.031Z,119.93
2022-12-03T17:40:31.552Z,123.88
2022-12-03T17:42:58.730Z,126.57
2022-12-03T17:45:26.753Z,129.85
2022-12-03T17:47:53.930Z,121.45
2022-12-03T17:50:21.440Z,125.28
2022-12-03T17:52:48.614Z,121.28
2022-12-03T17:55:23.911Z,122.72
2022-12-03T17:57:53.603Z,121.10
2022-12-03T18:00:21.210Z,124.10
2022-12-03T18:02:48.491Z,132.23
2022-12-03T18:05:16.142Z,113.95
2022-12-03T18:07:43.449Z,126.18
2022-12-03T18:10:11.908Z,116.47
2022-12-03T18:12:39.224Z,125.63
2022-12-03T18:15:07.360Z,128.30
2022-12-03T18:17:34.593Z,125.65
2022-12-03T18:20:02.611Z,122.57
2022-12-03T18:22:30.897Z,119.63
2022-12-03T18:24:58.595Z,118.38
2022-12-03T18:27:26.001Z,112.22
2022-12-03T18:29:53.650Z,122.43
2022-12-03T18:32:28.753Z,118.57
2022-12-03T18:34:58.040Z,117.68
2022-12-03T18:37:28.370Z,106.40
2022-12-03T18:39:57.899Z,117.75
2022-12-03T18:42:26.141Z,116.82
2022-12-03T18:44:55.781Z,110.78
2022-12-03T18:47:27.093Z,124.10
2022-12-03T18:49:55.592Z,121.40
2022-12-03T18:52:25.004Z,128.95
2022-12-03T18:54:53.014Z,123.35
2022-12-03T18:57:20.233Z,117.28
2022-12-03T18:59:47.781Z,122.72
2022-12-03T19:02:53.798Z,118.25
2022-12-03T19:05:05.594Z,120.50
2022-12-03T19:07:32.812Z,129.55
2022-12-03T19:10:00.314Z,98.13
2022-12-03T19:12:27.636Z,122.72
2022-12-03T19:14:55.244Z,113.05
2022-12-03T19:17:22.525Z,113.40
2022-12-03T19:19:50.134Z,114.00
2022-12-03T19:22:17.446Z,110.18
2022-12-03T19:24:45.104Z,112.13
2022-12-03T19:27:12.338Z,107.60
2022-12-03T19:29:40.013Z,116.55
2022-12-03T19:32:07.221Z,115.72
2022-12-03T19:34:35.114Z,116.75
2022-12-03T19:37:02.282Z,106.80
2022-12-03T19:39:29.783Z,103.18
2022-12-03T19:41:56.966Z,113.40
2022-12-03T19:44:24.540Z,105.65
2022-12-03T19:46:51.798Z,106.60
2022-12-03T19:49:21.370Z,106.45
2022-12-03T19:51:49.091Z,113.63
2022-12-03T19:54:17.758Z,101.55
2022-12-03T19:56:44.984Z,105.03
2022-12-03T19:59:13.603Z,105.43
2022-12-03T20:01:43.192Z,100.63
2022-12-03T20:04:12.863Z,88.85
2022-12-03T20:06:40.163Z,103.40
2022-12-03T20:09:13.512Z,102.03
2022-12-03T20:11:42.009Z,101.15
2022-12-03T20:14:12.083Z,107.30
2022-12-03T20:16:39.921Z,104.18
2022-12-03T20:19:10.694Z,110.30
2022-12-03T20:21:39.364Z,86.18
2022-12-03T20:24:08.072Z,102.40
2022-12-03T20:26:35.347Z,104.80
2022-12-03T20:29:02.821Z,102.18
2022-12-03T20:31:31.546Z,108.22
2022-12-03T20:34:01.732Z,99.63
2022-12-03T20:36:31.032Z,104.80
2022-12-03T20:39:02.607Z,103.07
2022-12-03T20:41:30.048Z,99.00
2022-12-03T20:43:57.551Z,91.75
2022-12-03T20:46:27.332Z,98.07
2022-12-03T20:48:56.073Z,99.63
2022-12-03T20:51:26.752Z,98.40
2022-12-03T20:53:54.631Z,97.72
2022-12-03T20:56:28.168Z,102.30
2022-12-03T20:58:55.680Z,96.22
2022-12-03T21:01:26.493Z,95.93
2022-12-03T21:03:56.152Z,107.35
2022-12-03T21:06:26.285Z,109.78
2022-12-03T21:08:54.999Z,101.45
2022-12-03T21:11:25.011Z,108.85
2022-12-03T21:13:54.387Z,99.60
2022-12-03T21:16:45.507Z,99.53
2022-12-03T21:19:12.511Z,107.35
2022-12-03T21:21:39.708Z,102.32
2022-12-03T21:24:07.618Z,118.80
2022-12-03T21:26:34.843Z,98.97
2022-12-03T21:29:02.296Z,110.72
2022-12-03T21:31:31.615Z,117.20
2022-12-03T21:33:59.223Z,108.22
2022-12-03T21:36:26.413Z,113.75
2022-12-03T21:38:53.848Z,111.28
2022-12-03T21:41:21.052Z,98.97
2022-12-03T21:43:48.532Z,110.90
2022-12-03T21:47:10.775Z,110.93
2022-12-03T21:49:05.007Z,111.88
2022-12-03T21:51:32.202Z,105.72
2022-12-03T21:53:59.691Z,103.15
2022-12-03T21:56:27.144Z,106.57
2022-12-03T21:58:54.903Z,114.85
2022-12-03T22:01:24.174Z,110.47
2022-12-03T22:03:52.043Z,106.55
2022-12-03T22:06:19.811Z,105.60
2022-12-03T22:08:47.633Z,93.10
2022-12-03T22:11:18.130Z,95.68
2022-12-03T22:13:46.175Z,107.70
2022-12-03T22:16:15.827Z,104.82
2022-12-03T22:18:43.771Z,100.70
2022-12-03T22:21:13.764Z,114.15
2022-12-03T22:23:41.476Z,113.18
2022-12-03T22:26:11.946Z,108.80
2022-12-03T22:28:43.359Z,105.72
2022-12-03T22:31:10.942Z,98.28
2022-12-03T22:33:39.336Z,99.65
2022-12-03T22:36:13.376Z,97.90
2022-12-03T22:38:45.769Z,108.97
2022-12-03T22:41:14.349Z,101.32
2022-12-03T22:43:41.885Z,94.65
2022-12-03T22:46:13.336Z,97.75
2022-12-03T22:48:42.858Z,104.80
2022-12-03T22:51:13.986Z,98.10
2022-12-03T22:53:41.532Z,82.70
2022-12-03T22:56:09.029Z,94.60
2022-12-03T22:58:38.633Z,94.72
2022-12-03T23:01:06.811Z,103.68
2022-12-03T23:03:34.441Z,106.28
2022-12-03T23:06:01.674Z,96.15
2022-12-03T23:08:29.134Z,104.22
2022-12-03T23:11:01.878Z,106.13
2022-12-03T23:13:30.750Z,116.63
2022-12-03T23:15:58.384Z,106.93
2022-12-03T23:18:26.060Z,109.65
2022-12-03T23:20:55.555Z,87.95
2022-12-03T23:23:25.799Z,110.88
2022-12-03T23:26:12.498Z,94.57
2022-12-03T23:28:41.455Z,108.90
2022-12-03T23:31:26.891Z,97.53
2022-12-03T23:33:55.925Z,107.25
2022-12-03T23:36:24.801Z,107.15
2022-12-03T23:38:52.323Z,102.53
2022-12-03T23:41:21.504Z,101.80
2022-12-03T23:43:49.148Z,107.50
2022-12-03T23:46:22.201Z,87.70
2022-12-03T23:48:51.164Z,100.45
2022-12-03T23:51:21.921Z,102.43
2022-12-03T23:53:49.825Z,93.90
2022-12-03T23:56:19.669Z,100.93
2022-12-03T23:58:47.762Z,96.30
